Terminal Aerodrome Forecast
Issued by NWS

Home | Current Version | Previous Version | Text Only | Print | Product List | Glossary On
Versions: 1 2 3 4 5 6 7 8 9 10 11 12 13 14
816
FTUS42 KTAE 261726
TAFDHN
TAF
KDHN 261726Z 2618/2718 22007KT P6SM SCT030 BKN070
     FM262000 20010G15KT P6SM VCTS BKN050CB
     FM270000 20005KT P6SM FEW030
     FM270800 17004KT 1SM BR BKN004
     FM271000 16004KT 1/2SM FG VV002
     FM271400 17007KT P6SM SCT250=

USA.gov is the U.S. government's official web portal to all federal, state and local government web resources and services.